createdAt,value
2019-05-29T05:33:21.416Z,724.00
2019-05-29T05:34:21.304Z,748.00
2019-05-29T05:35:21.252Z,772.00
2019-05-29T05:36:21.246Z,788.00
2019-05-29T05:37:21.338Z,804.00
2019-05-29T05:38:21.182Z,820.00
2019-05-29T05:39:21.170Z,844.00
2019-05-29T05:40:21.143Z,880.00
2019-05-29T05:41:21.093Z,912.00
2019-05-29T05:42:21.109Z,952.00
2019-05-29T05:43:24.074Z,976.00
2019-05-29T05:44:21.103Z,1000.00
2019-05-29T05:45:21.079Z,1020.00
2019-05-29T05:46:21.030Z,1036.00
2019-05-29T05:47:21.043Z,1056.00
2019-05-29T05:48:21.031Z,1068.00
2019-05-29T05:49:21.045Z,1084.00
2019-05-29T05:50:21.033Z,1096.00
2019-05-29T05:51:20.979Z,1108.00
2019-05-29T05:52:20.975Z,1120.00
2019-05-29T05:53:20.983Z,1116.00
2019-05-29T05:54:20.968Z,1108.00
2019-05-29T05:55:20.972Z,1096.00
2019-05-29T05:56:20.945Z,1084.00
2019-05-29T05:57:20.909Z,1068.00
2019-05-29T05:58:20.921Z,1056.00
2019-05-29T05:59:20.908Z,1016.00
2019-05-29T06:00:20.879Z,988.00
2019-05-29T06:01:20.955Z,960.00
2019-05-29T06:02:20.853Z,948.00
2019-05-29T06:03:20.855Z,912.00
2019-05-29T06:04:20.850Z,912.00
2019-05-29T06:05:20.844Z,916.00
2019-05-29T06:06:20.823Z,956.00
2019-05-29T06:07:20.837Z,1004.00
2019-05-29T06:08:20.805Z,1032.00
2019-05-29T06:09:20.827Z,1036.00
2019-05-29T06:10:20.784Z,1024.00
2019-05-29T06:11:20.780Z,1020.00
2019-05-29T06:12:20.757Z,1024.00
2019-05-29T06:13:20.775Z,1032.00
2019-05-29T06:14:20.747Z,1072.00
2019-05-29T06:15:20.721Z,1096.00
2019-05-29T06:16:20.724Z,1124.00
2019-05-29T06:17:22.021Z,1148.00
2019-05-29T06:18:21.937Z,1196.00
2019-05-29T06:19:20.734Z,1220.00
2019-05-29T06:20:20.693Z,1232.00
2019-05-29T06:21:20.661Z,1236.00
2019-05-29T06:22:20.655Z,1244.00
2019-05-29T06:23:20.623Z,1224.00
2019-05-29T06:24:20.656Z,1216.00
2019-05-29T06:25:20.620Z,1220.00
2019-05-29T06:26:20.607Z,1196.00
2019-05-29T06:27:20.581Z,1204.00
2019-05-29T06:28:20.584Z,1196.00
2019-05-29T06:29:20.549Z,1196.00
2019-05-29T06:30:20.592Z,1168.00
2019-05-29T06:31:20.581Z,1140.00
2019-05-29T06:32:20.525Z,1112.00
2019-05-29T06:33:20.520Z,1068.00
2019-05-29T06:34:20.511Z,1100.00
2019-05-29T06:35:20.503Z,1136.00
2019-05-29T06:36:20.510Z,1156.00
2019-05-29T06:37:20.478Z,1196.00
2019-05-29T06:38:20.501Z,1220.00
2019-05-29T06:39:20.440Z,1228.00
2019-05-29T06:40:20.452Z,1244.00
2019-05-29T06:41:20.478Z,1244.00
2019-05-29T06:42:20.416Z,1256.00
2019-05-29T06:43:20.413Z,1256.00
2019-05-29T06:44:20.392Z,1260.00
2019-05-29T06:45:20.388Z,1260.00
2019-05-29T06:46:20.382Z,1276.00
2019-05-29T06:47:20.389Z,1296.00
2019-05-29T06:48:37.905Z,1324.00
2019-05-29T06:49:21.337Z,1352.00
2019-05-29T06:50:20.312Z,1372.00
2019-05-29T06:51:20.340Z,1392.00
2019-05-29T06:52:20.365Z,1408.00
2019-05-29T06:53:20.305Z,1448.00
2019-05-29T06:54:20.281Z,1488.00
2019-05-29T06:55:20.264Z,1532.00
2019-05-29T06:56:20.257Z,1576.00
2019-05-29T06:57:20.257Z,1608.00
2019-05-29T06:58:20.283Z,1656.00
2019-05-29T06:59:20.232Z,1696.00
2019-05-29T07:00:34.336Z,1736.00
2019-05-29T07:01:21.214Z,1780.00
2019-05-29T07:02:20.194Z,1820.00
2019-05-29T07:03:20.234Z,1868.00
2019-05-29T07:04:20.164Z,1924.00
2019-05-29T07:05:20.196Z,1972.00
2019-05-29T07:06:20.151Z,2028.00
2019-05-29T07:07:20.130Z,2076.00
2019-05-29T07:08:35.164Z,2128.00
2019-05-29T07:09:21.136Z,2180.00
2019-05-29T07:10:20.094Z,2236.00
2019-05-29T07:11:20.105Z,2296.00
2019-05-29T07:12:20.091Z,2352.00
2019-05-29T07:13:20.093Z,2400.00
2019-05-29T07:14:20.118Z,2444.00
2019-05-29T07:15:20.054Z,2484.00
2019-05-29T07:16:20.054Z,2524.00
2019-05-29T07:17:20.127Z,2564.00
2019-05-29T07:18:20.090Z,2600.00
2019-05-29T07:19:32.735Z,2632.00
2019-05-29T07:20:21.037Z,2668.00
2019-05-29T07:21:19.964Z,2692.00
2019-05-29T07:22:19.983Z,2748.00
2019-05-29T07:23:19.940Z,2796.00
2019-05-29T07:24:19.944Z,2844.00
2019-05-29T07:25:19.938Z,2880.00
2019-05-29T07:26:19.966Z,2924.00
2019-05-29T07:27:19.919Z,2964.00
2019-05-29T07:28:19.897Z,2996.00
2019-05-29T07:29:19.887Z,3048.00
2019-05-29T07:30:19.873Z,3108.00
2019-05-29T07:31:19.853Z,3212.00
2019-05-29T07:32:19.873Z,3268.00
2019-05-29T07:33:19.885Z,3204.00
2019-05-29T07:34:19.840Z,3028.00
2019-05-29T07:35:19.827Z,2888.00
2019-05-29T07:36:19.822Z,2612.00
2019-05-29T07:37:19.843Z,2452.00
2019-05-29T07:38:19.800Z,2356.00
2019-05-29T07:39:19.783Z,2308.00
2019-05-29T07:40:19.769Z,2228.00
2019-05-29T07:41:19.763Z,2092.00
2019-05-29T07:42:19.792Z,2144.00
2019-05-29T07:43:19.789Z,2120.00
2019-05-29T07:44:19.735Z,2284.00
2019-05-29T07:45:19.721Z,2492.00
2019-05-29T07:46:19.730Z,2464.00
2019-05-29T07:47:19.710Z,2364.00
2019-05-29T07:48:19.710Z,2380.00
2019-05-29T07:49:19.668Z,2700.00
2019-05-29T07:50:19.706Z,2920.00
2019-05-29T07:51:19.648Z,3036.00
2019-05-29T07:52:19.646Z,3008.00
2019-05-29T07:53:19.643Z,2932.00
2019-05-29T07:54:19.640Z,2812.00
2019-05-29T07:55:19.603Z,2652.00
2019-05-29T07:56:23.133Z,2400.00
2019-05-29T07:57:19.578Z,2480.00
2019-05-29T07:58:19.550Z,2520.00
2019-05-29T07:59:19.582Z,2492.00
2019-05-29T08:00:19.650Z,2160.00
2019-05-29T08:01:19.541Z,1988.00
2019-05-29T08:02:19.533Z,2144.00
2019-05-29T08:03:19.523Z,2276.00
2019-05-29T08:04:19.538Z,2700.00
2019-05-29T08:05:19.507Z,3128.00
2019-05-29T08:06:19.475Z,3452.00
2019-05-29T08:07:19.470Z,3664.00
2019-05-29T08:08:19.457Z,3920.00
2019-05-29T08:09:19.442Z,3972.00
2019-05-29T08:10:19.472Z,4032.00
2019-05-29T08:11:19.418Z,3724.00
2019-05-29T08:12:19.429Z,3320.00
2019-05-29T08:13:19.604Z,2980.00
2019-05-29T08:14:19.406Z,2868.00
2019-05-29T08:15:19.382Z,2736.00
2019-05-29T08:16:19.391Z,2872.00
2019-05-29T08:17:19.370Z,2936.00
2019-05-29T08:18:19.359Z,2952.00
2019-05-29T08:19:19.335Z,2868.00
2019-05-29T08:20:19.310Z,3004.00
2019-05-29T08:21:19.374Z,3004.00
2019-05-29T08:22:33.306Z,3140.00
2019-05-29T08:23:20.356Z,3052.00
2019-05-29T08:24:19.279Z,2968.00
2019-05-29T08:25:19.256Z,2928.00
2019-05-29T08:26:19.257Z,2844.00
2019-05-29T08:27:19.251Z,2944.00
2019-05-29T08:28:19.234Z,2980.00
2019-05-29T08:29:19.239Z,2860.00
2019-05-29T08:30:19.210Z,3016.00
2019-05-29T08:31:19.197Z,3288.00
2019-05-29T08:32:19.253Z,3148.00
2019-05-29T08:33:19.186Z,3080.00
2019-05-29T08:34:19.159Z,2984.00
2019-05-29T08:35:19.167Z,2768.00
2019-05-29T08:36:19.139Z,2568.00
2019-05-29T08:37:19.137Z,2556.00
2019-05-29T08:38:19.170Z,2676.00
2019-05-29T08:39:33.883Z,2852.00
2019-05-29T08:40:20.095Z,2904.00
2019-05-29T08:41:19.184Z,2824.00
2019-05-29T08:42:23.368Z,2912.00
2019-05-29T08:43:19.069Z,3012.00
2019-05-29T08:44:19.086Z,3096.00
2019-05-29T08:45:19.039Z,2924.00
2019-05-29T08:46:19.607Z,2716.00
2019-05-29T08:47:19.083Z,2600.00
2019-05-29T08:48:19.020Z,2592.00
2019-05-29T08:49:19.006Z,2584.00
2019-05-29T08:50:19.452Z,2720.00
2019-05-29T08:51:19.030Z,2756.00
2019-05-29T08:52:18.961Z,2788.00
2019-05-29T08:53:18.962Z,2852.00
2019-05-29T08:54:23.859Z,2936.00
2019-05-29T08:55:19.989Z,2868.00
2019-05-29T08:56:18.946Z,2844.00
2019-05-29T08:57:18.909Z,2944.00
2019-05-29T08:58:18.963Z,3096.00
2019-05-29T08:59:18.891Z,3200.00
2019-05-29T09:00:18.882Z,3220.00
2019-05-29T09:01:18.888Z,3320.00
2019-05-29T09:02:18.897Z,3368.00
2019-05-29T09:03:18.900Z,3356.00
2019-05-29T09:04:18.858Z,3392.00
2019-05-29T09:05:18.829Z,3496.00
2019-05-29T09:06:18.964Z,3572.00
2019-05-29T09:07:18.829Z,3624.00
2019-05-29T09:08:18.785Z,3576.00
2019-05-29T09:09:18.795Z,3380.00
2019-05-29T09:10:18.821Z,3216.00
2019-05-29T09:11:18.778Z,3096.00
2019-05-29T09:12:18.801Z,2976.00
2019-05-29T09:13:18.762Z,2920.00
2019-05-29T09:14:18.719Z,3028.00
2019-05-29T09:15:21.233Z,3236.00
2019-05-29T09:16:18.725Z,3368.00
2019-05-29T09:17:18.707Z,3408.00
2019-05-29T09:18:19.710Z,3520.00
2019-05-29T09:19:18.971Z,3536.00
2019-05-29T09:20:31.981Z,3716.00
2019-05-29T09:21:20.570Z,3652.00
2019-05-29T09:22:18.649Z,3828.00
2019-05-29T09:23:18.952Z,3964.00
2019-05-29T09:24:19.376Z,3884.00
2019-05-29T09:25:19.125Z,3724.00
2019-05-29T09:26:22.425Z,3656.00
2019-05-29T09:27:19.591Z,3164.00
2019-05-29T09:28:20.332Z,2932.00
2019-05-29T09:29:21.812Z,3064.00
2019-05-29T09:30:20.077Z,3004.00
2019-05-29T09:31:19.944Z,2828.00
2019-05-29T09:32:31.139Z,2776.00
2019-05-29T09:33:21.317Z,2736.00
2019-05-29T09:34:18.855Z,2504.00
2019-05-29T09:35:20.157Z,2152.00
2019-05-29T09:36:18.822Z,2012.00
2019-05-29T09:37:19.030Z,2036.00
2019-05-29T09:38:18.896Z,2012.00
2019-05-29T09:39:19.539Z,2224.00
2019-05-29T09:40:18.970Z,2348.00
2019-05-29T09:41:19.046Z,2316.00
2019-05-29T09:42:20.203Z,2580.00
2019-05-29T09:43:19.791Z,3088.00
2019-05-29T09:44:31.368Z,3260.00
2019-05-29T09:45:19.724Z,3332.00
2019-05-29T09:46:19.997Z,3420.00
2019-05-29T09:47:19.041Z,3560.00
2019-05-29T09:48:21.726Z,3856.00
2019-05-29T09:49:20.242Z,3992.00
2019-05-29T09:50:18.874Z,3932.00
2019-05-29T09:51:21.548Z,3948.00
2019-05-29T09:52:18.327Z,4108.00
2019-05-29T09:53:18.299Z,4192.00
2019-05-29T09:54:18.399Z,4164.00
2019-05-29T09:55:18.262Z,4236.00
2019-05-29T09:56:18.261Z,4428.00
2019-05-29T09:57:18.313Z,4472.00
2019-05-29T09:58:18.246Z,4388.00
2019-05-29T09:59:18.217Z,4376.00
2019-05-29T10:00:18.272Z,4356.00
2019-05-29T10:01:24.119Z,4400.00
2019-05-29T10:02:19.215Z,4404.00
2019-05-29T10:03:18.207Z,4436.00
2019-05-29T10:04:19.065Z,4392.00
2019-05-29T10:05:18.170Z,4360.00
2019-05-29T10:06:18.162Z,4340.00
2019-05-29T10:07:18.123Z,4308.00
2019-05-29T10:08:18.146Z,4252.00
2019-05-29T10:09:18.122Z,4240.00
2019-05-29T10:10:18.104Z,4316.00
2019-05-29T10:11:18.099Z,4436.00
2019-05-29T10:12:18.076Z,4504.00
2019-05-29T10:13:18.127Z,4548.00
2019-05-29T10:14:18.050Z,4400.00
2019-05-29T10:15:18.074Z,4168.00
2019-05-29T10:16:18.026Z,3996.00
2019-05-29T10:17:18.032Z,3764.00
2019-05-29T10:18:31.491Z,3540.00
2019-05-29T10:19:19.022Z,3692.00
2019-05-29T10:20:17.998Z,4140.00
2019-05-29T10:21:17.967Z,4304.00
2019-05-29T10:22:18.021Z,4588.00
2019-05-29T10:23:20.041Z,4808.00
2019-05-29T10:24:17.933Z,4712.00
2019-05-29T10:25:17.943Z,4588.00
2019-05-29T10:26:17.923Z,4268.00
2019-05-29T10:27:17.903Z,4236.00
2019-05-29T10:28:17.899Z,4240.00
2019-05-29T10:29:17.912Z,4128.00
2019-05-29T10:30:17.900Z,4132.00
2019-05-29T10:31:17.894Z,4264.00
2019-05-29T10:32:17.828Z,4408.00
2019-05-29T10:33:17.854Z,4416.00
2019-05-29T10:34:17.847Z,4288.00
2019-05-29T10:35:17.842Z,4304.00
2019-05-29T10:36:17.826Z,4384.00
2019-05-29T10:37:18.392Z,4424.00
2019-05-29T10:38:17.783Z,4492.00
2019-05-29T10:39:17.766Z,4764.00
2019-05-29T10:40:17.766Z,5088.00
2019-05-29T10:41:17.778Z,5480.00
2019-05-29T10:42:20.524Z,5332.00
2019-05-29T10:43:33.204Z,5276.00
2019-05-29T10:44:18.741Z,5516.00
2019-05-29T10:45:17.686Z,5784.00
2019-05-29T10:46:17.723Z,5108.00
2019-05-29T10:47:17.699Z,4840.00
2019-05-29T10:48:17.664Z,4548.00
2019-05-29T10:49:17.681Z,4296.00
2019-05-29T10:50:17.630Z,4288.00
2019-05-29T10:51:17.630Z,4344.00
2019-05-29T10:52:17.754Z,4244.00
2019-05-29T10:53:17.615Z,3944.00
2019-05-29T10:54:17.597Z,3772.00
2019-05-29T10:55:17.576Z,4060.00
2019-05-29T10:56:21.097Z,4344.00
2019-05-29T10:57:17.562Z,4512.00
2019-05-29T10:58:17.565Z,4600.00
2019-05-29T10:59:17.558Z,4800.00
2019-05-29T11:00:17.545Z,5064.00
2019-05-29T11:01:17.553Z,5412.00
2019-05-29T11:02:17.573Z,5668.00
2019-05-29T11:03:17.612Z,5532.00
2019-05-29T11:04:17.493Z,5396.00
2019-05-29T11:05:17.486Z,5180.00
2019-05-29T11:06:17.463Z,4848.00
2019-05-29T11:07:17.462Z,4512.00
2019-05-29T11:08:17.444Z,4272.00
2019-05-29T11:09:17.467Z,4248.00
2019-05-29T11:10:17.424Z,4156.00
2019-05-29T11:11:17.402Z,4144.00
2019-05-29T11:12:17.425Z,3964.00
2019-05-29T11:13:17.383Z,3804.00
2019-05-29T11:14:17.377Z,3724.00
2019-05-29T11:15:21.569Z,3508.00
2019-05-29T11:16:17.381Z,3480.00
2019-05-29T11:17:17.325Z,3588.00
2019-05-29T11:18:17.354Z,3656.00
2019-05-29T11:19:18.357Z,3568.00
2019-05-29T11:20:17.333Z,3220.00
2019-05-29T11:21:17.305Z,2864.00
2019-05-29T11:22:26.119Z,2700.00
2019-05-29T11:23:18.259Z,2708.00
2019-05-29T11:24:17.274Z,2728.00
2019-05-29T11:25:23.713Z,2600.00
2019-05-29T11:26:18.251Z,2356.00
2019-05-29T11:27:17.235Z,2112.00
2019-05-29T11:28:17.259Z,2064.00
2019-05-29T11:29:17.268Z,1888.00
2019-05-29T11:30:17.241Z,1872.00
2019-05-29T11:31:17.269Z,2080.00
2019-05-29T11:32:17.201Z,2224.00
2019-05-29T11:33:17.185Z,2272.00
2019-05-29T11:34:17.154Z,2340.00
2019-05-29T11:35:17.149Z,2436.00
2019-05-29T11:36:17.192Z,2536.00
2019-05-29T11:37:17.133Z,2644.00
2019-05-29T11:38:17.113Z,2632.00
2019-05-29T11:39:17.169Z,2528.00
2019-05-29T11:40:17.085Z,2404.00
2019-05-29T11:41:25.634Z,2352.00
2019-05-29T11:42:27.485Z,2344.00
2019-05-29T11:43:18.099Z,2288.00
2019-05-29T11:44:17.050Z,2124.00
2019-05-29T11:45:17.043Z,1896.00
2019-05-29T11:46:17.019Z,1740.00
2019-05-29T11:47:17.015Z,1624.00
2019-05-29T11:48:17.020Z,1568.00
2019-05-29T11:49:16.991Z,1568.00
2019-05-29T11:50:19.938Z,1620.00
2019-05-29T11:51:16.975Z,1684.00
2019-05-29T11:52:24.432Z,1820.00
2019-05-29T11:53:17.971Z,1976.00
2019-05-29T11:54:16.928Z,2168.00
2019-05-29T11:55:16.911Z,2368.00
2019-05-29T11:56:16.928Z,2628.00
2019-05-29T11:57:16.900Z,2952.00
2019-05-29T11:58:30.608Z,3340.00
2019-05-29T11:59:17.882Z,3688.00
2019-05-29T12:00:20.219Z,3996.00
2019-05-29T12:01:16.843Z,4304.00
2019-05-29T12:02:16.839Z,4576.00
2019-05-29T12:03:16.827Z,4780.00
2019-05-29T12:04:25.737Z,4896.00
2019-05-29T12:05:16.809Z,4928.00
2019-05-29T12:06:16.809Z,4944.00
2019-05-29T12:07:16.791Z,4968.00
2019-05-29T12:08:16.757Z,5008.00
2019-05-29T12:09:31.394Z,5028.00
2019-05-29T12:10:17.870Z,5012.00
2019-05-29T12:11:16.737Z,5060.00
2019-05-29T12:12:16.744Z,5036.00
2019-05-29T12:13:17.582Z,5036.00
2019-05-29T12:14:16.684Z,5020.00
2019-05-29T12:15:18.700Z,4996.00
2019-05-29T12:16:16.714Z,4952.00
2019-05-29T12:17:16.690Z,4984.00
2019-05-29T12:18:23.695Z,4968.00
2019-05-29T12:19:17.639Z,5044.00
2019-05-29T12:20:31.385Z,5552.00
2019-05-29T12:21:17.647Z,5608.00
2019-05-29T12:22:16.611Z,5288.00
2019-05-29T12:23:25.956Z,5332.00
2019-05-29T12:24:17.618Z,5588.00
2019-05-29T12:25:16.562Z,6064.00
2019-05-29T12:26:22.710Z,5768.00
2019-05-29T12:27:17.668Z,6232.00
2019-05-29T12:28:16.570Z,6276.00
2019-05-29T12:29:16.546Z,6940.00
2019-05-29T12:30:16.574Z,6320.00
2019-05-29T12:31:16.516Z,4632.00
2019-05-29T12:32:16.564Z,6124.00
2019-05-29T12:33:16.522Z,3504.00
2019-05-29T12:34:19.363Z,3020.00
2019-05-29T12:35:16.474Z,2816.00
2019-05-29T12:36:16.460Z,2504.00
2019-05-29T12:37:16.459Z,2332.00
2019-05-29T12:38:16.514Z,2216.00
2019-05-29T12:39:16.442Z,2176.00
2019-05-29T12:40:16.422Z,2196.00
2019-05-29T12:41:16.407Z,2220.00
2019-05-29T12:42:16.393Z,2272.00
2019-05-29T12:43:26.372Z,2348.00
2019-05-29T12:44:17.403Z,2432.00
2019-05-29T12:45:16.355Z,2508.00
2019-05-29T12:46:16.353Z,2600.00
2019-05-29T12:47:16.340Z,2704.00
2019-05-29T12:48:16.816Z,2844.00
2019-05-29T12:49:16.298Z,3008.00
2019-05-29T12:50:16.328Z,3204.00
2019-05-29T12:51:16.297Z,3324.00
2019-05-29T12:52:16.262Z,3444.00
2019-05-29T12:53:29.841Z,3604.00
2019-05-29T12:54:17.251Z,3696.00
2019-05-29T12:55:16.252Z,3564.00
2019-05-29T12:56:16.243Z,3396.00
2019-05-29T12:57:16.193Z,2944.00
2019-05-29T12:58:16.202Z,2648.00
2019-05-29T12:59:16.191Z,2440.00
2019-05-29T13:00:16.187Z,2188.00
2019-05-29T13:01:16.265Z,2028.00
2019-05-29T13:02:16.150Z,1940.00
2019-05-29T13:03:16.158Z,1908.00
2019-05-29T13:04:16.143Z,1912.00
2019-05-29T13:05:20.416Z,1960.00
2019-05-29T13:06:16.155Z,2052.00
2019-05-29T13:07:16.131Z,2204.00
2019-05-29T13:08:16.070Z,2384.00
2019-05-29T13:09:16.085Z,2556.00
2019-05-29T13:10:29.411Z,2692.00
2019-05-29T13:11:17.079Z,2848.00
2019-05-29T13:12:16.049Z,3060.00
2019-05-29T13:13:16.043Z,3376.00
2019-05-29T13:14:16.072Z,4528.00
2019-05-29T13:15:16.012Z,4440.00
2019-05-29T13:16:15.998Z,5872.00
2019-05-29T13:17:16.003Z,6068.00
2019-05-29T13:18:16.034Z,5904.00
2019-05-29T13:19:15.982Z,4264.00
2019-05-29T13:20:21.703Z,2900.00
2019-05-29T13:21:15.967Z,2424.00
2019-05-29T13:22:15.972Z,2124.00
2019-05-29T13:23:15.924Z,1988.00
2019-05-29T13:24:15.934Z,1920.00
2019-05-29T13:25:15.905Z,1900.00
2019-05-29T13:26:15.898Z,1988.00
2019-05-29T13:27:15.944Z,2180.00
2019-05-29T13:28:15.852Z,2436.00
2019-05-29T13:29:15.862Z,2760.00
2019-05-29T13:30:15.881Z,3040.00
2019-05-29T13:31:15.958Z,3224.00
2019-05-29T13:32:15.860Z,3204.00
2019-05-29T13:33:15.841Z,3152.00
2019-05-29T13:34:15.839Z,3052.00
2019-05-29T13:35:15.821Z,2944.00
2019-05-29T13:36:15.827Z,2880.00
2019-05-29T13:37:15.773Z,2904.00
2019-05-29T13:38:15.778Z,3016.00
2019-05-29T13:39:15.818Z,3144.00
2019-05-29T13:40:15.738Z,3248.00
2019-05-29T13:41:15.780Z,3308.00
2019-05-29T13:42:15.709Z,3344.00
2019-05-29T13:43:16.178Z,3408.00
2019-05-29T13:44:15.667Z,3680.00
2019-05-29T13:45:18.136Z,3796.00
2019-05-29T13:46:15.655Z,5308.00
2019-05-29T13:47:15.683Z,4692.00
2019-05-29T13:48:15.670Z,5284.00
2019-05-29T13:49:15.645Z,5476.00
2019-05-29T13:50:15.620Z,5960.00
2019-05-29T13:51:15.621Z,6708.00
2019-05-29T13:52:15.606Z,6732.00
2019-05-29T13:53:15.611Z,4340.00
2019-05-29T13:54:18.170Z,5180.00
2019-05-29T13:55:15.599Z,4540.00
2019-05-29T13:56:15.548Z,3536.00
2019-05-29T13:57:15.595Z,3396.00
2019-05-29T13:58:15.556Z,3324.00
2019-05-29T13:59:15.531Z,3188.00
2019-05-29T14:00:34.305Z,2892.00
2019-05-29T14:01:16.503Z,2712.00
2019-05-29T14:02:15.522Z,2652.00
2019-05-29T14:03:15.491Z,2652.00
2019-05-29T14:04:15.496Z,2832.00
2019-05-29T14:05:15.482Z,5512.00
2019-05-29T14:06:15.445Z,3476.00
2019-05-29T14:07:15.459Z,6412.00
2019-05-29T14:08:15.431Z,6396.00
2019-05-29T14:09:15.485Z,6220.00
2019-05-29T14:10:15.395Z,5948.00
2019-05-29T14:11:15.396Z,3488.00
2019-05-29T14:12:15.385Z,3156.00
2019-05-29T14:13:15.436Z,2904.00
2019-05-29T14:14:15.355Z,2720.00
2019-05-29T14:15:15.373Z,2612.00
2019-05-29T14:16:15.316Z,2560.00
2019-05-29T14:17:15.319Z,2504.00
2019-05-29T14:18:15.296Z,2468.00
2019-05-29T14:19:15.352Z,2368.00
2019-05-29T14:20:15.309Z,2316.00
2019-05-29T14:21:15.282Z,2252.00
2019-05-29T14:22:15.261Z,2204.00
2019-05-29T14:23:15.227Z,2172.00
2019-05-29T14:24:28.190Z,2164.00
2019-05-29T14:25:16.776Z,2168.00
2019-05-29T14:26:15.234Z,2192.00
2019-05-29T14:27:15.303Z,2196.00
2019-05-29T14:28:15.456Z,2204.00
2019-05-29T14:29:15.259Z,2272.00
2019-05-29T14:30:15.177Z,2372.00
2019-05-29T14:31:15.250Z,2496.00
2019-05-29T14:32:16.033Z,2604.00
2019-05-29T14:33:17.358Z,2716.00
2019-05-29T14:34:15.724Z,2876.00
2019-05-29T14:35:15.274Z,3072.00
2019-05-29T14:36:15.150Z,3236.00
2019-05-29T14:37:15.361Z,3524.00
2019-05-29T14:38:16.340Z,6588.00
2019-05-29T14:39:15.134Z,4308.00
2019-05-29T14:40:15.154Z,3748.00
2019-05-29T14:41:15.080Z,3540.00
2019-05-29T14:42:15.917Z,3244.00
2019-05-29T14:43:15.665Z,3148.00
2019-05-29T14:44:17.089Z,3088.00
2019-05-29T14:45:14.985Z,2968.00
2019-05-29T14:46:15.016Z,2888.00
2019-05-29T14:47:14.987Z,2884.00
2019-05-29T14:48:14.971Z,2888.00
2019-05-29T14:49:14.965Z,2880.00
2019-05-29T14:50:15.027Z,2860.00
2019-05-29T14:51:15.006Z,2824.00
2019-05-29T14:52:14.930Z,2856.00
2019-05-29T14:53:14.941Z,2964.00
2019-05-29T14:54:14.910Z,3180.00
2019-05-29T14:55:18.018Z,3388.00
2019-05-29T14:56:15.990Z,6116.00
2019-05-29T14:57:25.640Z,7712.00
2019-05-29T14:58:15.948Z,7796.00
2019-05-29T14:59:14.858Z,7876.00
2019-05-29T15:00:24.434Z,7520.00
2019-05-29T15:01:14.812Z,8296.00
2019-05-29T15:02:21.742Z,8484.00
2019-05-29T15:03:15.797Z,8208.00
2019-05-29T15:04:14.852Z,8212.00
2019-05-29T15:05:15.189Z,8120.00
2019-05-29T15:06:14.845Z,8180.00
2019-05-29T15:07:14.809Z,8316.00
2019-05-29T15:08:14.772Z,8480.00
2019-05-29T15:09:14.776Z,8468.00
2019-05-29T15:10:26.258Z,4236.00
2019-05-29T15:11:15.697Z,3132.00
2019-05-29T15:12:14.751Z,3008.00
2019-05-29T15:13:15.465Z,2972.00
2019-05-29T15:14:14.682Z,3064.00
2019-05-29T15:15:16.499Z,3308.00
2019-05-29T15:16:14.949Z,3228.00
2019-05-29T15:17:15.587Z,8176.00
2019-05-29T15:18:18.280Z,7940.00
2019-05-29T15:19:15.236Z,8332.00
2019-05-29T15:20:16.758Z,8684.00
2019-05-29T15:21:15.356Z,8680.00
2019-05-29T15:22:16.001Z,8856.00
2019-05-29T15:23:15.765Z,8784.00
2019-05-29T15:24:15.896Z,8608.00
2019-05-29T15:25:23.532Z,8832.00
2019-05-29T15:26:15.847Z,9008.00
2019-05-29T15:27:14.553Z,8516.00
2019-05-29T15:28:16.023Z,7848.00
2019-05-29T15:29:16.436Z,5248.00
2019-05-29T15:30:19.990Z,3656.00
2019-05-29T15:31:14.705Z,2744.00
2019-05-29T15:32:14.700Z,2568.00
2019-05-29T15:33:14.929Z,2536.00
2019-05-29T15:34:14.547Z,2492.00
2019-05-29T15:35:17.811Z,2432.00
2019-05-29T15:36:16.851Z,2356.00
2019-05-29T15:37:16.970Z,2256.00
2019-05-29T15:38:14.895Z,2204.00
2019-05-29T15:39:14.682Z,2140.00
2019-05-29T15:40:14.937Z,2096.00
2019-05-29T15:41:14.862Z,2076.00
2019-05-29T15:42:15.046Z,2104.00
2019-05-29T15:43:15.291Z,2156.00
2019-05-29T15:44:15.039Z,2204.00
2019-05-29T15:45:14.341Z,2244.00
2019-05-29T15:46:15.965Z,2320.00
2019-05-29T15:47:14.978Z,2436.00
2019-05-29T15:48:15.287Z,2556.00
2019-05-29T15:49:15.201Z,2772.00
2019-05-29T15:50:16.009Z,8132.00
2019-05-29T15:51:15.102Z,8124.00
2019-05-29T15:52:15.226Z,8148.00
2019-05-29T15:53:15.219Z,8112.00
2019-05-29T15:54:15.305Z,3120.00
2019-05-29T15:55:31.843Z,5668.00
2019-05-29T15:56:25.396Z,2988.00
2019-05-29T15:57:15.230Z,2136.00
2019-05-29T15:58:15.292Z,2256.00
2019-05-29T15:59:14.944Z,6224.00
2019-05-29T16:00:15.465Z,8116.00
2019-05-29T16:01:15.654Z,8276.00
2019-05-29T16:02:15.626Z,8420.00
2019-05-29T16:03:14.123Z,8412.00
2019-05-29T16:04:14.103Z,8620.00
2019-05-29T16:05:15.406Z,8788.00
2019-05-29T16:06:14.158Z,8760.00
2019-05-29T16:07:14.133Z,8596.00
2019-05-29T16:08:14.104Z,8464.00
2019-05-29T16:09:14.307Z,8304.00
2019-05-29T16:10:16.434Z,8492.00
2019-05-29T16:11:14.620Z,8308.00
2019-05-29T16:12:14.764Z,8420.00
2019-05-29T16:13:15.273Z,8344.00
2019-05-29T16:14:14.932Z,8824.00
2019-05-29T16:15:15.387Z,7552.00
2019-05-29T16:16:15.292Z,3392.00
2019-05-29T16:17:15.175Z,2908.00
2019-05-29T16:18:26.206Z,3104.00
2019-05-29T16:19:16.032Z,2920.00
2019-05-29T16:20:14.475Z,4668.00
2019-05-29T16:21:14.747Z,8700.00
2019-05-29T16:22:14.377Z,7380.00
2019-05-29T16:23:31.060Z,6968.00
2019-05-29T16:24:14.890Z,7276.00
2019-05-29T16:25:14.943Z,8180.00
2019-05-29T16:26:15.063Z,8248.00
2019-05-29T16:27:14.071Z,7952.00
2019-05-29T16:28:15.075Z,8112.00
2019-05-29T16:29:15.957Z,8060.00
2019-05-29T16:30:15.566Z,8092.00
2019-05-29T16:31:14.869Z,7992.00
2019-05-29T16:32:13.798Z,7904.00
2019-05-29T16:33:14.991Z,7868.00
2019-05-29T16:34:14.635Z,7988.00
2019-05-29T16:35:14.941Z,8052.00
2019-05-29T16:36:14.564Z,8108.00
2019-05-29T16:37:13.809Z,8012.00
2019-05-29T16:38:14.192Z,7572.00
2019-05-29T16:39:13.789Z,7528.00
2019-05-29T16:40:14.305Z,7168.00
2019-05-29T16:41:13.839Z,7432.00
2019-05-29T16:42:14.003Z,7472.00
2019-05-29T16:43:13.853Z,7220.00
2019-05-29T16:44:14.114Z,6188.00
2019-05-29T16:45:14.204Z,5468.00
2019-05-29T16:46:17.110Z,2104.00
2019-05-29T16:47:14.806Z,1872.00
2019-05-29T16:48:14.577Z,3364.00
2019-05-29T16:49:14.479Z,4056.00
2019-05-29T16:50:15.001Z,6408.00
2019-05-29T16:51:14.559Z,6884.00
2019-05-29T16:52:14.905Z,7072.00
2019-05-29T16:53:14.620Z,6880.00
2019-05-29T16:54:14.622Z,7000.00
2019-05-29T16:55:14.823Z,7092.00
2019-05-29T16:56:14.693Z,6836.00
2019-05-29T16:57:15.013Z,6768.00
2019-05-29T16:58:13.508Z,6764.00
2019-05-29T16:59:13.490Z,6260.00
2019-05-29T17:00:13.871Z,6680.00
2019-05-29T17:01:13.490Z,6372.00
2019-05-29T17:02:13.750Z,6280.00
2019-05-29T17:03:13.543Z,5712.00
2019-05-29T17:04:13.576Z,5180.00
2019-05-29T17:05:13.701Z,3168.00
2019-05-29T17:06:13.711Z,2652.00
2019-05-29T17:07:14.148Z,2552.00
2019-05-29T17:08:14.054Z,4224.00
2019-05-29T17:09:14.531Z,5672.00
2019-05-29T17:10:14.305Z,5164.00
2019-05-29T17:11:14.495Z,4788.00
2019-05-29T17:12:14.289Z,1944.00
2019-05-29T17:13:14.570Z,1972.00
2019-05-29T17:14:14.400Z,5836.00
2019-05-29T17:15:14.810Z,5528.00
2019-05-29T17:16:14.376Z,4864.00
2019-05-29T17:17:14.790Z,5188.00
2019-05-29T17:18:14.645Z,4964.00
2019-05-29T17:19:14.508Z,5036.00
2019-05-29T17:20:14.557Z,4764.00
2019-05-29T17:21:14.392Z,4176.00
2019-05-29T17:22:14.485Z,4768.00
2019-05-29T17:23:14.881Z,4888.00
2019-05-29T17:24:14.556Z,4988.00
2019-05-29T17:25:14.716Z,5096.00
2019-05-29T17:26:14.538Z,4888.00
2019-05-29T17:27:14.458Z,4936.00
2019-05-29T17:28:13.165Z,4776.00
2019-05-29T17:29:13.157Z,4564.00
2019-05-29T17:30:14.439Z,4812.00
2019-05-29T17:31:13.184Z,4696.00
2019-05-29T17:32:13.143Z,4672.00
2019-05-29T17:33:13.126Z,4576.00
2019-05-29T17:34:13.098Z,4364.00
2019-05-29T17:35:13.164Z,4044.00
2019-05-29T17:36:13.136Z,2672.00
2019-05-29T17:37:13.081Z,3116.00
2019-05-29T17:38:13.081Z,3016.00
2019-05-29T17:39:13.075Z,1908.00